Time;durP1;ratioP1;P1;durP2;ratioP2;P2;SDS_P1;SDS_P2;PMS_P1;PMS_P2;Temp;Humidity;BMP_temperature;BMP_pressure;BME280_temperature;BME280_humidity;BME280_pressure;Samples;Min_cycle;Max_cycle;Signal;HPM_P1;HPM_P2
2023/12/08 00:01:13;;;;;;;7.47;4.78;;;4.50;93.30;;;;;;4929624;29;20203;-45
2023/12/08 00:03:42;;;;;;;6.10;5.15;;;4.50;93.30;;;;;;4925533;29;20300;-44
2023/12/08 00:06:10;;;;;;;7.15;4.93;;;4.50;93.30;;;;;;4928959;29;20227;-45
2023/12/08 00:08:39;;;;;;;7.75;5.47;;;4.50;93.30;;;;;;4929268;29;21101;-44
2023/12/08 00:11:09;;;;;;;4.80;4.13;;;4.50;93.30;;;;;;4922886;29;20196;-46
2023/12/08 00:13:37;;;;;;;9.10;5.20;;;4.50;93.20;;;;;;4925742;29;20228;-44
2023/12/08 00:16:06;;;;;;;7.05;4.50;;;4.50;93.20;;;;;;4932909;29;20196;-45
2023/12/08 00:18:37;;;;;;;6.05;4.90;;;4.50;93.10;;;;;;4925492;29;20233;-46
2023/12/08 00:21:06;;;;;;;7.68;5.05;;;4.50;93.10;;;;;;4930732;29;20683;-44
2023/12/08 00:23:35;;;;;;;6.32;4.72;;;4.50;93.20;;;;;;4923777;29;20212;-44
2023/12/08 00:26:03;;;;;;;6.70;5.60;;;4.50;93.60;;;;;;4928040;29;20209;-46
2023/12/08 00:28:32;;;;;;;6.10;4.80;;;4.50;93.10;;;;;;4931115;29;20648;-46
2023/12/08 00:31:00;;;;;;;8.35;4.80;;;4.50;93.00;;;;;;4927020;29;20205;-44
2023/12/08 00:33:28;;;;;;;5.55;3.72;;;4.50;93.00;;;;;;4929746;29;20745;-44
2023/12/08 00:35:57;;;;;;;6.95;4.90;;;4.50;92.90;;;;;;4924393;29;20205;-47
2023/12/08 00:38:28;;;;;;;5.72;4.47;;;4.50;92.90;;;;;;4925746;29;20239;-45
2023/12/08 00:40:57;;;;;;;7.88;5.40;;;4.50;92.90;;;;;;4926441;29;20658;-46
2023/12/08 00:43:25;;;;;;;7.65;4.97;;;4.50;92.80;;;;;;4925596;29;20690;-46
2023/12/08 00:45:54;;;;;;;5.28;4.38;;;4.50;92.90;;;;;;4928872;29;20667;-46
2023/12/08 00:48:25;;;;;;;7.47;5.10;;;4.50;92.90;;;;;;4926051;29;20292;-46
2023/12/08 00:50:53;;;;;;;5.28;4.10;;;4.50;92.90;;;;;;4930124;29;20459;-44
2023/12/08 00:53:21;;;;;;;7.68;5.22;;;4.50;92.90;;;;;;4923504;29;20217;-46
2023/12/08 00:55:49;;;;;;;5.90;4.65;;;4.50;92.90;;;;;;4926687;29;20216;-47
2023/12/08 00:58:17;;;;;;;6.05;4.30;;;4.50;92.90;;;;;;4943663;29;20714;-47
2023/12/08 01:00:45;;;;;;;4.50;3.85;;;4.50;92.90;;;;;;4927995;29;20205;-46
2023/12/08 01:03:15;;;;;;;5.93;4.28;;;4.50;92.90;;;;;;4928194;29;20226;-45
2023/12/08 01:05:43;;;;;;;5.65;4.10;;;4.50;92.90;;;;;;4921351;29;20584;-48
2023/12/08 01:08:11;;;;;;;5.05;4.05;;;4.50;93.00;;;;;;4924241;29;20235;-47
2023/12/08 01:10:39;;;;;;;5.70;3.80;;;4.50;93.00;;;;;;4928307;29;20303;-44
2023/12/08 01:13:07;;;;;;;5.55;3.72;;;4.50;93.00;;;;;;4927997;29;20315;-44
2023/12/08 01:15:35;;;;;;;4.75;4.10;;;4.50;93.00;;;;;;4928336;29;20216;-44
2023/12/08 01:18:03;;;;;;;8.88;4.40;;;4.50;93.00;;;;;;4929107;29;20443;-44
2023/12/08 01:20:33;;;;;;;4.57;3.55;;;4.50;93.00;;;;;;4927757;29;20192;-46
2023/12/08 01:23:01;;;;;;;6.22;4.35;;;4.50;93.10;;;;;;4924107;29;20228;-44
2023/12/08 01:25:29;;;;;;;5.03;3.72;;;4.50;93.10;;;;;;4931586;29;20674;-44
2023/12/08 01:27:57;;;;;;;6.85;3.75;;;4.50;93.10;;;;;;4927726;29;20299;-44
2023/12/08 01:30:25;;;;;;;6.75;4.25;;;4.50;93.50;;;;;;4928112;29;20260;-45
2023/12/08 01:32:53;;;;;;;6.13;4.50;;;4.50;93.10;;;;;;4927229;29;20223;-47
2023/12/08 01:35:21;;;;;;;5.38;3.95;;;4.50;93.10;;;;;;4931758;29;20316;-46
2023/12/08 01:37:51;;;;;;;4.72;3.55;;;4.50;93.10;;;;;;4927738;29;20244;-46
2023/12/08 01:40:19;;;;;;;4.47;3.95;;;4.50;93.10;;;;;;4928167;29;20212;-46
2023/12/08 01:42:47;;;;;;;4.97;3.22;;;4.50;93.10;;;;;;4922829;29;20253;-49
2023/12/08 01:45:16;;;;;;;3.83;3.42;;;4.50;93.10;;;;;;4925805;29;20208;-46
2023/12/08 01:47:44;;;;;;;6.15;4.45;;;4.50;93.10;;;;;;4928693;29;20235;-46
2023/12/08 01:50:14;;;;;;;5.57;4.10;;;4.50;93.10;;;;;;4926036;29;20685;-47
2023/12/08 01:52:43;;;;;;;5.97;4.70;;;4.50;93.10;;;;;;4930776;29;20211;-47
2023/12/08 01:55:13;;;;;;;5.53;4.30;;;4.50;93.10;;;;;;4925412;29;20213;-46
2023/12/08 01:57:41;;;;;;;4.97;3.63;;;4.50;93.10;;;;;;4926021;29;20193;-46
2023/12/08 02:00:11;;;;;;;6.20;4.72;;;4.50;93.20;;;;;;4925414;29;20260;-46
2023/12/08 02:02:39;;;;;;;6.50;4.68;;;4.50;93.10;;;;;;4925727;29;20215;-46
2023/12/08 02:05:09;;;;;;;6.95;4.32;;;4.50;93.10;;;;;;4925114;29;20196;-46
2023/12/08 02:07:37;;;;;;;6.75;4.30;;;4.50;93.10;;;;;;4924241;29;20215;-47
2023/12/08 02:10:06;;;;;;;5.63;4.40;;;4.50;93.10;;;;;;4930407;29;20636;-47
2023/12/08 02:12:35;;;;;;;6.82;4.82;;;4.50;93.10;;;;;;4920063;29;20636;-46
2023/12/08 02:15:03;;;;;;;6.55;4.60;;;4.50;93.10;;;;;;4928108;29;20754;-46
2023/12/08 02:17:38;;;;;;;4.47;3.92;;;4.50;93.10;;;;;;4933123;29;20279;-46
2023/12/08 02:20:09;;;;;;;5.63;4.40;;;4.50;93.10;;;;;;4930461;29;20295;-46
2023/12/08 02:22:37;;;;;;;6.05;4.35;;;4.50;93.20;;;;;;4929170;29;20220;-46
2023/12/08 02:25:07;;;;;;;4.53;3.53;;;4.50;93.30;;;;;;4929991;29;20615;-47
2023/12/08 02:27:35;;;;;;;6.70;3.63;;;4.50;93.30;;;;;;4931738;29;20615;-46
2023/12/08 02:30:04;;;;;;;7.43;5.15;;;4.50;93.30;;;;;;4926971;29;20202;-47
2023/12/08 02:32:39;;;;;;;6.75;4.70;;;4.50;93.30;;;;;;4933447;29;20231;-46
2023/12/08 02:35:09;;;;;;;4.90;3.75;;;4.50;93.20;;;;;;4932801;29;20306;-47
2023/12/08 02:37:40;;;;;;;5.22;4.03;;;4.50;93.30;;;;;;4934409;29;20220;-47
2023/12/08 02:40:10;;;;;;;5.40;3.80;;;4.50;93.30;;;;;;4929443;29;20659;-46
2023/12/08 02:42:38;;;;;;;7.80;4.55;;;4.50;93.30;;;;;;4928746;29;20204;-46
2023/12/08 02:45:08;;;;;;;6.20;4.00;;;4.50;93.30;;;;;;4929348;29;20192;-46
2023/12/08 02:47:36;;;;;;;6.78;5.15;;;4.50;93.30;;;;;;4933684;29;20226;-45
2023/12/08 02:50:05;;;;;;;5.72;4.30;;;4.50;93.80;;;;;;4930777;29;20192;-46
2023/12/08 02:52:33;;;;;;;6.68;4.63;;;4.50;93.40;;;;;;4928086;29;20284;-44
2023/12/08 02:55:02;;;;;;;5.88;4.50;;;4.40;93.30;;;;;;4931063;29;20212;-47
2023/12/08 02:57:32;;;;;;;6.57;4.50;;;4.50;93.40;;;;;;4930037;29;20270;-46
2023/12/08 03:00:00;;;;;;;7.07;4.88;;;4.40;93.40;;;;;;4931123;29;20300;-46
2023/12/08 03:02:29;;;;;;;6.32;4.90;;;4.50;93.50;;;;;;4923392;29;20226;-46
2023/12/08 03:04:57;;;;;;;4.53;3.28;;;4.50;93.60;;;;;;4930630;29;20216;-47
2023/12/08 03:07:25;;;;;;;4.93;3.97;;;4.50;93.50;;;;;;4920803;29;20523;-48
2023/12/08 03:09:53;;;;;;;5.15;3.33;;;4.50;94.00;;;;;;4932435;29;20276;-46
2023/12/08 03:12:21;;;;;;;5.50;4.20;;;4.50;93.40;;;;;;4928560;29;20204;-47
2023/12/08 03:14:50;;;;;;;6.30;3.88;;;4.50;93.50;;;;;;4932988;29;20224;-46
2023/12/08 03:17:18;;;;;;;5.43;3.58;;;4.50;93.40;;;;;;4927850;29;20228;-46
2023/12/08 03:19:46;;;;;;;5.35;3.90;;;4.50;93.50;;;;;;4930475;29;20272;-47
2023/12/08 03:22:15;;;;;;;6.20;4.65;;;4.50;93.50;;;;;;4932625;29;20197;-47
2023/12/08 03:24:43;;;;;;;4.35;3.30;;;4.50;93.60;;;;;;4933089;29;20227;-46
2023/12/08 03:27:11;;;;;;;4.15;3.28;;;4.50;93.50;;;;;;4928840;29;20204;-45
2023/12/08 03:29:39;;;;;;;5.82;4.35;;;4.50;93.40;;;;;;4933714;29;20346;-46
2023/12/08 03:32:09;;;;;;;5.78;3.97;;;4.50;93.50;;;;;;4934390;29;20208;-47
2023/12/08 03:34:38;;;;;;;5.07;3.70;;;4.50;93.50;;;;;;4922698;29;20225;-44
2023/12/08 03:37:06;;;;;;;6.90;3.33;;;4.50;93.40;;;;;;4926771;29;20658;-48
2023/12/08 03:39:34;;;;;;;6.13;4.82;;;4.50;93.40;;;;;;4923796;29;20244;-46
2023/12/08 03:42:02;;;;;;;4.35;3.95;;;4.50;93.70;;;;;;4926308;29;20619;-47
2023/12/08 03:44:31;;;;;;;6.32;4.80;;;4.50;93.60;;;;;;4931065;29;20228;-46
2023/12/08 03:46:59;;;;;;;6.70;5.03;;;4.50;94.20;;;;;;4934456;29;20666;-47
2023/12/08 03:49:28;;;;;;;5.07;4.38;;;4.50;93.90;;;;;;4924757;29;20231;-46
2023/12/08 03:51:56;;;;;;;5.72;4.15;;;4.50;93.80;;;;;;4928521;29;20228;-48
2023/12/08 03:54:24;;;;;;;8.23;4.90;;;4.50;93.90;;;;;;4924970;29;20232;-47
2023/12/08 03:56:52;;;;;;;6.45;4.97;;;4.50;94.10;;;;;;4921521;29;20209;-47
2023/12/08 03:59:20;;;;;;;8.18;6.15;;;4.50;94.10;;;;;;4930115;29;20311;-48
2023/12/08 04:01:52;;;;;;;5.90;3.97;;;4.40;94.20;;;;;;4930672;29;20619;-46
2023/12/08 04:04:21;;;;;;;5.75;4.38;;;4.40;94.10;;;;;;4931762;29;20271;-46
2023/12/08 04:06:55;;;;;;;6.60;4.05;;;4.50;94.00;;;;;;4927790;29;20186;-46
2023/12/08 04:09:23;;;;;;;7.43;5.10;;;4.50;93.80;;;;;;4923003;29;20221;-46
2023/12/08 04:11:55;;;;;;;7.47;4.90;;;4.50;94.00;;;;;;4927673;29;20204;-46
2023/12/08 04:14:23;;;;;;;5.15;4.18;;;4.50;94.20;;;;;;4932746;29;20789;-46
2023/12/08 04:16:51;;;;;;;6.35;4.30;;;4.50;94.10;;;;;;4926396;29;20307;-45
2023/12/08 04:19:20;;;;;;;6.30;4.05;;;4.50;94.10;;;;;;4929144;29;20225;-47
2023/12/08 04:21:49;;;;;;;5.95;3.85;;;4.50;94.10;;;;;;4923485;29;20205;-46
2023/12/08 04:24:18;;;;;;;6.00;4.00;;;4.50;93.90;;;;;;4929895;29;20228;-49
2023/12/08 04:26:46;;;;;;;5.63;4.10;;;4.50;93.90;;;;;;4919017;29;20260;-49
2023/12/08 04:29:15;;;;;;;6.53;4.65;;;4.50;94.00;;;;;;4925691;29;20742;-48
2023/12/08 04:31:42;;;;;;;6.90;4.65;;;4.50;94.00;;;;;;4926272;29;20564;-47
2023/12/08 04:34:10;;;;;;;7.22;4.47;;;4.50;94.10;;;;;;4932163;29;20307;-44
2023/12/08 04:36:41;;;;;;;8.10;4.88;;;4.40;94.20;;;;;;4923225;29;20590;-46
2023/12/08 04:39:09;;;;;;;7.85;3.78;;;4.50;94.30;;;;;;4926310;29;20715;-46
2023/12/08 04:41:39;;;;;;;6.07;4.90;;;4.40;94.30;;;;;;4922228;29;20655;-45
2023/12/08 04:44:07;;;;;;;6.45;4.35;;;4.50;94.50;;;;;;4928919;29;20259;-46
2023/12/08 04:46:35;;;;;;;7.00;4.90;;;4.50;94.60;;;;;;4932790;29;20192;-47
2023/12/08 04:49:03;;;;;;;6.22;4.70;;;4.40;94.70;;;;;;4921549;29;20722;-46
2023/12/08 04:51:31;;;;;;;4.15;3.22;;;4.40;94.80;;;;;;4924407;29;20201;-47
2023/12/08 04:53:59;;;;;;;7.28;4.63;;;4.40;94.60;;;;;;4929233;29;20665;-47
2023/12/08 04:56:27;;;;;;;6.63;4.45;;;4.40;94.60;;;;;;4928893;29;20204;-48
2023/12/08 04:58:56;;;;;;;4.68;4.00;;;4.40;94.80;;;;;;4927557;29;20281;-49
2023/12/08 05:01:24;;;;;;;5.97;4.32;;;4.40;94.90;;;;;;4922993;29;20595;-46
2023/12/08 05:03:53;;;;;;;4.80;4.07;;;4.40;94.90;;;;;;4919380;29;20239;-45
2023/12/08 05:06:23;;;;;;;6.75;4.78;;;4.40;94.90;;;;;;4916127;29;20613;-47
2023/12/08 05:08:51;;;;;;;5.30;4.35;;;4.40;94.80;;;;;;4930792;29;20235;-46
2023/12/08 05:11:19;;;;;;;6.70;4.35;;;4.40;94.90;;;;;;4927736;29;20683;-45
2023/12/08 05:13:47;;;;;;;7.75;4.70;;;4.40;94.80;;;;;;4930097;29;20227;-45
2023/12/08 05:16:16;;;;;;;4.68;3.50;;;4.40;94.80;;;;;;4926958;29;20225;-45
2023/12/08 05:18:45;;;;;;;5.78;4.10;;;4.40;94.70;;;;;;4924995;29;20331;-45
2023/12/08 05:21:13;;;;;;;4.60;3.70;;;4.40;94.90;;;;;;4924945;29;20200;-44
2023/12/08 05:23:41;;;;;;;6.28;4.22;;;4.40;94.80;;;;;;4924268;29;20683;-45
2023/12/08 05:26:09;;;;;;;5.75;4.50;;;4.40;95.00;;;;;;4929651;29;20276;-47
2023/12/08 05:28:37;;;;;;;4.60;4.10;;;4.40;95.10;;;;;;4926887;29;20306;-45
2023/12/08 05:31:06;;;;;;;5.22;4.20;;;4.40;95.20;;;;;;4931412;29;20438;-44
2023/12/08 05:33:36;;;;;;;5.60;4.50;;;4.40;95.00;;;;;;4930571;29;20220;-46
2023/12/08 05:36:04;;;;;;;5.80;4.80;;;4.40;95.10;;;;;;4926949;29;20204;-47
2023/12/08 05:38:34;;;;;;;6.15;4.65;;;4.40;95.00;;;;;;4931722;29;20247;-45
2023/12/08 05:41:03;;;;;;;5.85;5.22;;;4.40;95.30;;;;;;4922277;29;20197;-47
2023/12/08 05:43:31;;;;;;;6.68;5.22;;;4.40;95.20;;;;;;4930168;29;20311;-44
2023/12/08 05:45:59;;;;;;;5.68;4.03;;;4.40;95.20;;;;;;4930959;29;20216;-44
2023/12/08 05:48:27;;;;;;;5.50;3.92;;;4.40;95.00;;;;;;4931171;29;20232;-45
2023/12/08 05:50:56;;;;;;;5.35;3.45;;;4.40;94.80;;;;;;4927714;29;20205;-45
2023/12/08 05:53:25;;;;;;;7.78;5.43;;;4.40;95.00;;;;;;4931225;29;20671;-45
2023/12/08 05:55:53;;;;;;;6.75;4.85;;;4.50;95.10;;;;;;4932215;29;20216;-47
2023/12/08 05:58:24;;;;;;;5.10;3.90;;;4.40;95.10;;;;;;4928669;29;20291;-44
2023/12/08 06:00:52;;;;;;;5.50;4.20;;;4.40;95.00;;;;;;4930745;29;20288;-47
2023/12/08 06:03:20;;;;;;;5.93;4.38;;;4.40;95.10;;;;;;4929603;29;20228;-45
2023/12/08 06:05:48;;;;;;;7.43;4.85;;;4.40;95.00;;;;;;4925681;29;20209;-46
2023/12/08 06:08:18;;;;;;;7.10;5.10;;;4.40;95.00;;;;;;4930226;29;20308;-47
2023/12/08 06:10:47;;;;;;;5.82;4.35;;;4.40;95.10;;;;;;4930590;29;20197;-45
2023/12/08 06:13:15;;;;;;;8.82;4.55;;;4.50;94.90;;;;;;4925022;29;20232;-47
2023/12/08 06:15:44;;;;;;;5.85;4.07;;;4.40;95.00;;;;;;4929688;29;20232;-44
2023/12/08 06:18:12;;;;;;;5.20;3.88;;;4.40;95.00;;;;;;4926064;29;20216;-45
2023/12/08 06:20:40;;;;;;;5.78;3.95;;;4.40;94.80;;;;;;4926226;29;20205;-45
2023/12/08 06:23:08;;;;;;;4.75;3.47;;;4.50;94.90;;;;;;4927293;29;20225;-45
2023/12/08 06:25:37;;;;;;;7.50;4.65;;;4.40;94.80;;;;;;4926562;29;20193;-44
2023/12/08 06:28:06;;;;;;;5.05;4.20;;;4.40;95.10;;;;;;4926374;29;20236;-44
2023/12/08 06:30:34;;;;;;;6.15;4.20;;;4.40;95.00;;;;;;4930133;29;20221;-44
2023/12/08 06:33:02;;;;;;;4.43;3.95;;;4.50;95.00;;;;;;4925313;29;20252;-46
2023/12/08 06:35:30;;;;;;;5.78;3.80;;;4.50;94.70;;;;;;4929990;29;20200;-45
2023/12/08 06:37:58;;;;;;;4.38;3.03;;;4.50;94.80;;;;;;4930158;29;20691;-44
2023/12/08 06:40:26;;;;;;;5.68;3.88;;;4.40;94.50;;;;;;4931365;29;20196;-45
2023/12/08 06:42:55;;;;;;;5.03;3.50;;;4.40;94.50;;;;;;4926809;29;20201;-45
2023/12/08 06:45:23;;;;;;;4.30;3.15;;;4.50;94.60;;;;;;4923699;29;20205;-45
2023/12/08 06:47:51;;;;;;;4.88;3.45;;;4.50;94.40;;;;;;4931220;29;20276;-45
2023/12/08 06:50:20;;;;;;;3.35;2.40;;;4.50;94.30;;;;;;4928456;29;20220;-49
2023/12/08 06:52:51;;;;;;;5.32;3.63;;;4.50;94.30;;;;;;4932880;29;20228;-45
2023/12/08 06:55:19;;;;;;;5.28;3.78;;;4.50;94.20;;;;;;4931965;29;20192;-44
2023/12/08 06:57:47;;;;;;;3.00;2.70;;;4.50;94.20;;;;;;4922377;29;20300;-47
2023/12/08 07:00:17;;;;;;;3.72;2.88;;;4.50;94.30;;;;;;4932985;29;20726;-45
2023/12/08 07:02:45;;;;;;;5.07;3.10;;;4.50;94.20;;;;;;4926615;29;20603;-46
2023/12/08 07:05:19;;;;;;;5.07;3.75;;;4.50;94.30;;;;;;4933423;29;20204;-45
2023/12/08 07:07:48;;;;;;;5.22;3.47;;;4.50;94.40;;;;;;4926180;29;20249;-45
2023/12/08 07:10:16;;;;;;;5.22;3.55;;;4.50;94.50;;;;;;4934861;29;20193;-45
2023/12/08 07:12:44;;;;;;;3.88;3.15;;;4.50;94.30;;;;;;4923047;29;20224;-45
2023/12/08 07:15:13;;;;;;;4.80;2.90;;;4.50;94.30;;;;;;4934938;29;20188;-45
2023/12/08 07:17:42;;;;;;;3.92;3.40;;;4.50;94.30;;;;;;4933906;29;20217;-44
2023/12/08 07:20:12;;;;;;;3.70;2.90;;;4.50;94.30;;;;;;4931351;29;20189;-44
2023/12/08 07:22:40;;;;;;;4.72;3.25;;;4.50;94.20;;;;;;4933776;29;20815;-45
2023/12/08 07:25:10;;;;;;;4.22;3.35;;;4.50;94.40;;;;;;4934918;29;20528;-44
2023/12/08 07:27:38;;;;;;;4.10;2.90;;;4.50;94.60;;;;;;4929071;29;20204;-46
2023/12/08 07:30:07;;;;;;;4.15;3.33;;;4.50;94.20;;;;;;4934512;29;20197;-47
2023/12/08 07:32:35;;;;;;;4.55;2.95;;;4.50;94.20;;;;;;4933761;29;20201;-45
2023/12/08 07:35:06;;;;;;;5.78;3.15;;;4.50;94.20;;;;;;4929395;29;20225;-44
2023/12/08 07:37:34;;;;;;;3.88;3.17;;;4.50;94.20;;;;;;4934243;29;20627;-45
2023/12/08 07:40:03;;;;;;;2.80;2.33;;;4.50;94.20;;;;;;4927280;29;20240;-44
2023/12/08 07:42:33;;;;;;;4.35;3.38;;;4.50;94.10;;;;;;4929723;29;20575;-45
2023/12/08 07:45:01;;;;;;;3.72;2.75;;;4.50;94.30;;;;;;4934070;29;20276;-45
2023/12/08 07:47:29;;;;;;;4.10;3.13;;;4.50;94.50;;;;;;4933386;29;20201;-43
2023/12/08 07:49:57;;;;;;;3.88;3.10;;;4.50;94.20;;;;;;4928222;29;20292;-44
2023/12/08 07:52:27;;;;;;;4.28;2.80;;;4.50;94.40;;;;;;4930920;29;20216;-44
2023/12/08 07:54:55;;;;;;;4.43;3.20;;;4.50;94.30;;;;;;4933873;29;20231;-45
2023/12/08 07:57:23;;;;;;;4.95;3.08;;;4.50;94.40;;;;;;4929300;29;20252;-46
2023/12/08 07:59:52;;;;;;;5.00;3.58;;;4.50;94.40;;;;;;4932282;29;20212;-44
2023/12/08 08:02:22;;;;;;;2.75;2.17;;;4.50;94.80;;;;;;4927409;29;20202;-46
2023/12/08 08:04:50;;;;;;;3.10;2.42;;;4.50;94.40;;;;;;4928325;29;20598;-44
2023/12/08 08:07:18;;;;;;;4.22;2.58;;;4.50;94.60;;;;;;4932879;29;20615;-46
2023/12/08 08:09:48;;;;;;;3.90;2.53;;;4.50;94.50;;;;;;4925855;29;20247;-47
2023/12/08 08:12:16;;;;;;;4.00;2.63;;;4.50;94.40;;;;;;4930739;29;20193;-45
2023/12/08 08:14:45;;;;;;;5.50;4.32;;;4.50;94.60;;;;;;4933177;29;20216;-45
2023/12/08 08:17:13;;;;;;;3.60;2.38;;;4.50;94.60;;;;;;4930546;29;20197;-46
2023/12/08 08:19:41;;;;;;;4.15;2.63;;;4.50;94.30;;;;;;4929345;29;22531;-45
2023/12/08 08:22:10;;;;;;;4.13;3.00;;;4.50;94.10;;;;;;4928155;29;20720;-46
2023/12/08 08:24:59;;;;;;;3.25;2.35;;;4.50;94.20;;;;;;4926446;29;20614;-45
2023/12/08 08:27:28;;;;;;;3.47;2.60;;;4.50;94.00;;;;;;4928129;29;20204;-45
2023/12/08 08:29:56;;;;;;;2.90;2.55;;;4.50;94.00;;;;;;4929112;29;20219;-46
2023/12/08 08:32:25;;;;;;;3.20;2.30;;;4.50;93.90;;;;;;4921530;29;20809;-46
2023/12/08 08:34:53;;;;;;;3.47;2.55;;;4.50;93.90;;;;;;4931029;29;20223;-44
2023/12/08 08:37:25;;;;;;;3.13;2.13;;;4.50;93.90;;;;;;4924432;29;20197;-46
2023/12/08 08:39:53;;;;;;;2.95;1.75;;;4.50;93.80;;;;;;4932666;29;20224;-46
2023/12/08 08:42:23;;;;;;;3.65;2.92;;;4.50;93.80;;;;;;4924190;29;20205;-49
2023/12/08 08:44:52;;;;;;;4.85;3.38;;;4.50;93.70;;;;;;4918505;29;20221;-49
2023/12/08 08:47:20;;;;;;;4.10;2.92;;;4.50;94.40;;;;;;4928724;29;20203;-46
2023/12/08 08:49:48;;;;;;;4.10;2.97;;;4.50;94.80;;;;;;4922867;29;20255;-43
2023/12/08 08:52:18;;;;;;;2.42;1.77;;;4.50;94.00;;;;;;4928223;29;20209;-45
2023/12/08 08:54:47;;;;;;;3.03;2.50;;;4.50;93.90;;;;;;4931964;29;20320;-44
2023/12/08 08:57:15;;;;;;;2.65;1.98;;;4.50;93.80;;;;;;4929431;29;20232;-46
2023/12/08 08:59:45;;;;;;;2.88;2.55;;;4.50;94.20;;;;;;4926423;29;20231;-46
2023/12/08 09:02:13;;;;;;;3.15;2.10;;;4.50;93.80;;;;;;4932175;29;20204;-44
2023/12/08 09:04:41;;;;;;;2.47;1.73;;;4.50;93.70;;;;;;4926384;29;20354;-45
2023/12/08 09:07:09;;;;;;;2.90;1.88;;;4.50;93.70;;;;;;4926127;29;20565;-46
2023/12/08 09:09:38;;;;;;;2.70;2.22;;;4.50;93.80;;;;;;4923095;29;20778;-45
2023/12/08 09:12:10;;;;;;;2.92;1.83;;;4.50;93.70;;;;;;4928513;29;20284;-45
2023/12/08 09:14:39;;;;;;;3.35;2.00;;;4.50;93.90;;;;;;4929779;29;20702;-46
2023/12/08 09:17:08;;;;;;;3.38;2.70;;;4.60;93.80;;;;;;4925242;29;20193;-47
2023/12/08 09:19:37;;;;;;;2.35;1.73;;;4.60;93.70;;;;;;4926819;29;20794;-47
2023/12/08 09:22:06;;;;;;;3.72;2.30;;;4.60;94.00;;;;;;4931080;29;20197;-47
2023/12/08 09:24:35;;;;;;;2.30;1.75;;;4.50;94.40;;;;;;4930251;29;20717;-50
2023/12/08 09:27:03;;;;;;;5.93;2.90;;;4.60;93.80;;;;;;4925353;29;20760;-48
2023/12/08 09:29:31;;;;;;;2.88;2.00;;;4.60;94.40;;;;;;4930974;29;20702;-46
2023/12/08 09:31:59;;;;;;;2.55;1.90;;;4.50;94.20;;;;;;4930851;29;20287;-45
2023/12/08 09:34:31;;;;;;;3.88;2.65;;;4.50;94.00;;;;;;4931012;29;20600;-45
2023/12/08 09:37:01;;;;;;;3.53;2.15;;;4.60;94.10;;;;;;4928386;29;20197;-45
2023/12/08 09:39:49;;;;;;;2.90;2.03;;;4.50;94.10;;;;;;4931121;29;20271;-45
2023/12/08 09:42:27;;;;;;;3.65;2.50;;;4.60;93.90;;;;;;4927297;29;20211;-46
2023/12/08 09:44:56;;;;;;;2.38;2.15;;;4.60;94.40;;;;;;4924824;29;20216;-48
2023/12/08 09:47:27;;;;;;;3.45;2.00;;;4.50;94.00;;;;;;4931217;29;20203;-46
2023/12/08 09:50:00;;;;;;;2.47;1.70;;;4.50;94.00;;;;;;4926450;29;20229;-47
2023/12/08 09:52:29;;;;;;;2.58;1.90;;;4.50;94.00;;;;;;4920680;29;20209;-45
2023/12/08 09:54:59;;;;;;;1.95;1.65;;;4.50;93.80;;;;;;4930876;29;20216;-46
2023/12/08 09:57:29;;;;;;;3.53;2.47;;;4.50;93.90;;;;;;4926977;29;20204;-46
2023/12/08 09:59:59;;;;;;;4.20;2.30;;;4.60;94.20;;;;;;4931106;29;20229;-45
2023/12/08 10:02:28;;;;;;;2.80;2.10;;;4.50;94.10;;;;;;4929506;29;20698;-45
2023/12/08 10:04:57;;;;;;;3.55;2.20;;;4.50;94.40;;;;;;4927095;29;20587;-45
2023/12/08 10:07:31;;;;;;;3.65;2.35;;;4.50;94.00;;;;;;4927124;29;20189;-45
2023/12/08 10:09:59;;;;;;;3.45;2.95;;;4.50;94.50;;;;;;4930176;29;20212;-46
2023/12/08 10:12:28;;;;;;;3.50;2.13;;;4.60;94.60;;;;;;4926686;29;20255;-45
2023/12/08 10:14:58;;;;;;;2.83;2.00;;;4.60;94.40;;;;;;4930281;29;20227;-44
2023/12/08 10:17:26;;;;;;;4.65;2.42;;;4.60;94.10;;;;;;4930843;29;20367;-49
2023/12/08 10:20:10;;;;;;;3.10;1.90;;;4.60;94.20;;;;;;4922597;29;20231;-50
2023/12/08 10:22:47;;;;;;;2.58;2.20;;;4.60;94.00;;;;;;4930303;29;20197;-44
2023/12/08 10:25:16;;;;;;;3.70;2.00;;;4.60;94.00;;;;;;4930629;29;20773;-49
2023/12/08 10:27:47;;;;;;;2.63;1.90;;;4.60;94.30;;;;;;4926463;29;20584;-46
2023/12/08 10:30:17;;;;;;;2.90;1.77;;;4.60;94.20;;;;;;4924458;29;20220;-44
2023/12/08 10:32:46;;;;;;;4.88;2.20;;;4.60;94.30;;;;;;4928036;29;20256;-45
2023/12/08 10:35:16;;;;;;;2.92;1.95;;;4.60;94.30;;;;;;4924570;29;20196;-47
2023/12/08 10:37:45;;;;;;;2.33;1.90;;;4.60;94.10;;;;;;4930298;29;20232;-44
2023/12/08 10:40:14;;;;;;;3.00;2.13;;;4.60;94.40;;;;;;4928087;29;20229;-46
2023/12/08 10:42:45;;;;;;;2.40;1.83;;;4.60;94.20;;;;;;4928234;28;20374;-47
2023/12/08 10:45:14;;;;;;;2.95;2.00;;;4.60;94.30;;;;;;4934683;29;20193;-43
2023/12/08 10:47:44;;;;;;;3.13;2.22;;;4.60;94.40;;;;;;4923411;29;20823;-49
2023/12/08 10:50:13;;;;;;;6.10;2.92;;;4.70;94.20;;;;;;4933043;29;20200;-45
2023/12/08 10:52:44;;;;;;;4.28;2.10;;;4.70;94.20;;;;;;4932160;29;20201;-45
2023/12/08 10:55:12;;;;;;;3.08;2.08;;;4.70;94.70;;;;;;4930717;29;20207;-45
2023/12/08 10:57:43;;;;;;;4.68;2.10;;;4.70;94.70;;;;;;4930634;29;20228;-47
2023/12/08 11:00:15;;;;;;;3.35;1.75;;;4.70;94.70;;;;;;4934579;29;20751;-44
2023/12/08 11:02:47;;;;;;;2.22;1.60;;;4.60;94.50;;;;;;4933668;29;20361;-45
2023/12/08 11:05:22;;;;;;;3.92;1.45;;;4.60;94.40;;;;;;4925589;29;20225;-46
2023/12/08 11:07:54;;;;;;;2.97;2.05;;;4.70;94.40;;;;;;4930139;29;20729;-46
2023/12/08 11:10:25;;;;;;;5.63;3.13;;;4.70;94.50;;;;;;4932411;29;20196;-45
2023/12/08 11:12:57;;;;;;;2.40;1.70;;;4.70;94.70;;;;;;4923883;29;20192;-48
2023/12/08 11:15:28;;;;;;;3.05;2.13;;;4.70;94.70;;;;;;4932757;29;20209;-48
2023/12/08 11:18:12;;;;;;;3.17;2.03;;;4.70;94.70;;;;;;4932303;29;20732;-47
2023/12/08 11:20:42;;;;;;;2.67;1.92;;;4.70;95.20;;;;;;4931580;29;20208;-45
2023/12/08 11:23:12;;;;;;;2.80;2.05;;;4.70;95.00;;;;;;4934136;29;20228;-46
2023/12/08 11:25:47;;;;;;;2.80;2.30;;;4.70;95.00;;;;;;4933827;29;20208;-45
2023/12/08 11:28:24;;;;;;;2.60;1.70;;;4.70;94.80;;;;;;4929510;29;20232;-45
2023/12/08 11:30:57;;;;;;;2.67;1.58;;;4.70;94.60;;;;;;4924682;29;20260;-47
2023/12/08 11:33:33;;;;;;;3.03;2.00;;;4.70;94.50;;;;;;4931095;29;20237;-47
2023/12/08 11:36:08;;;;;;;3.83;1.63;;;4.70;94.40;;;;;;4922902;29;20619;-44
2023/12/08 11:38:41;;;;;;;4.00;1.65;;;4.70;94.60;;;;;;4932930;29;20248;-46
2023/12/08 11:41:12;;;;;;;3.55;1.60;;;4.70;94.70;;;;;;4927349;29;20560;-43
2023/12/08 11:43:43;;;;;;;7.07;2.00;;;4.70;94.80;;;;;;4933264;29;20236;-45
2023/12/08 11:46:11;;;;;;;3.15;1.95;;;4.70;94.80;;;;;;4933424;29;20201;-45
2023/12/08 11:48:41;;;;;;;3.25;2.13;;;4.70;94.70;;;;;;4930810;29;20236;-47
2023/12/08 11:51:12;;;;;;;6.18;2.13;;;4.70;94.90;;;;;;4920578;29;20713;-46
2023/12/08 11:53:54;;;;;;;5.38;1.85;;;4.70;94.60;;;;;;4928164;29;20229;-46
2023/12/08 11:56:39;;;;;;;3.08;2.03;;;4.70;94.50;;;;;;4929129;29;20260;-46
2023/12/08 11:59:07;;;;;;;6.03;2.35;;;4.70;95.00;;;;;;4924430;29;20244;-46
2023/12/08 12:01:38;;;;;;;2.30;1.73;;;4.70;95.30;;;;;;4930751;29;20224;-46
2023/12/08 12:04:06;;;;;;;2.70;1.50;;;4.70;95.00;;;;;;4921262;29;20224;-45
2023/12/08 12:06:36;;;;;;;4.63;2.10;;;4.70;94.60;;;;;;4930512;29;20200;-46
2023/12/08 12:09:07;;;;;;;5.13;2.53;;;4.70;94.90;;;;;;4930547;29;20572;-48
2023/12/08 12:11:38;;;;;;;3.78;2.35;;;4.70;94.90;;;;;;4928569;29;20196;-46
2023/12/08 12:14:08;;;;;;;4.65;2.08;;;4.70;94.40;;;;;;4932991;29;20293;-45
2023/12/08 12:16:36;;;;;;;2.95;1.75;;;4.70;94.50;;;;;;4932666;29;20204;-45
2023/12/08 12:19:04;;;;;;;4.63;1.90;;;4.70;94.30;;;;;;4931464;29;20217;-43
2023/12/08 12:21:32;;;;;;;3.17;1.80;;;4.70;94.40;;;;;;4945329;28;20782;-44
2023/12/08 12:24:00;;;;;;;2.83;1.92;;;4.70;94.50;;;;;;4931809;29;20220;-44
2023/12/08 12:26:30;;;;;;;2.67;1.80;;;4.70;94.70;;;;;;4928625;29;20732;-45
2023/12/08 12:28:58;;;;;;;3.97;1.67;;;4.70;94.60;;;;;;4932397;29;20233;-44
2023/12/08 12:31:26;;;;;;;3.13;1.80;;;4.70;95.30;;;;;;4931685;29;20651;-49
2023/12/08 12:33:54;;;;;;;4.55;1.83;;;4.70;94.50;;;;;;4928753;29;20255;-45
2023/12/08 12:36:22;;;;;;;2.95;1.83;;;4.70;94.40;;;;;;4930310;29;20196;-43
2023/12/08 12:38:52;;;;;;;2.65;1.38;;;4.70;94.60;;;;;;4931895;29;20280;-45
2023/12/08 12:41:21;;;;;;;3.00;1.70;;;4.80;94.50;;;;;;4928033;29;20210;-48
2023/12/08 12:43:56;;;;;;;4.10;2.05;;;4.80;95.00;;;;;;4931990;29;20232;-47
2023/12/08 12:46:26;;;;;;;3.05;1.73;;;4.80;95.20;;;;;;4932347;29;20631;-44
2023/12/08 12:48:55;;;;;;;2.30;1.80;;;4.80;94.50;;;;;;4931832;29;20718;-45
2023/12/08 12:51:34;;;;;;;2.80;1.67;;;4.80;94.70;;;;;;4924757;29;20188;-47
2023/12/08 12:54:03;;;;;;;4.35;2.08;;;4.80;94.40;;;;;;4926219;29;20216;-48
2023/12/08 12:56:33;;;;;;;4.22;1.65;;;4.80;94.60;;;;;;4928283;29;20537;-46
2023/12/08 12:59:07;;;;;;;3.10;1.50;;;4.80;94.40;;;;;;4931636;29;20255;-45
2023/12/08 13:01:36;;;;;;;3.88;1.60;;;4.80;94.40;;;;;;4931869;29;20220;-47
2023/12/08 13:04:05;;;;;;;2.28;1.40;;;4.80;94.60;;;;;;4932210;29;20627;-46
2023/12/08 13:06:36;;;;;;;4.10;1.73;;;4.80;94.50;;;;;;4930073;29;20255;-45
2023/12/08 13:09:05;;;;;;;2.45;1.40;;;4.80;94.30;;;;;;4931239;29;20256;-46